createdAt,value
2023-05-31T00:01:42.442Z,9.80
2023-05-31T00:04:15.147Z,9.70
2023-05-31T00:06:48.029Z,9.70
2023-05-31T00:09:20.597Z,9.70
2023-05-31T00:11:53.704Z,9.60
2023-05-31T00:14:26.338Z,9.60
2023-05-31T00:19:34.628Z,9.50
2023-05-31T00:22:07.525Z,9.50
2023-05-31T00:24:40.124Z,9.40
2023-05-31T00:27:12.946Z,9.30
2023-05-31T00:29:45.488Z,9.40
2023-05-31T00:32:18.355Z,9.40
2023-05-31T00:34:51.180Z,9.30
2023-05-31T00:37:24.087Z,9.30
2023-05-31T00:39:56.607Z,9.20
2023-05-31T00:42:29.424Z,9.20
2023-05-31T00:45:02.018Z,9.20
2023-05-31T00:47:36.358Z,9.20
2023-05-31T00:50:09.233Z,9.20
2023-05-31T00:52:43.031Z,9.20
2023-05-31T00:55:15.894Z,9.20
2023-05-31T00:57:49.141Z,9.20
2023-05-31T01:00:22.017Z,9.10
2023-05-31T01:02:54.988Z,9.10
2023-05-31T01:05:27.545Z,9.00
2023-05-31T01:08:00.730Z,9.00
2023-05-31T01:10:33.356Z,9.00
2023-05-31T01:13:24.450Z,9.00
2023-05-31T01:16:04.573Z,8.90
2023-05-31T01:18:46.201Z,8.90
2023-05-31T01:21:20.482Z,9.00
2023-05-31T01:24:45.475Z,9.00
2023-05-31T01:27:18.259Z,9.00
2023-05-31T01:29:51.522Z,8.90
2023-05-31T01:32:25.697Z,8.90
2023-05-31T01:34:58.646Z,8.90
2023-05-31T01:37:31.193Z,8.90
2023-05-31T01:40:06.043Z,8.80
2023-05-31T01:42:38.929Z,8.80
2023-05-31T01:45:13.673Z,8.80
2023-05-31T01:47:48.680Z,8.70
2023-05-31T01:50:22.047Z,8.70
2023-05-31T01:52:54.706Z,8.70
2023-05-31T01:55:28.464Z,8.70
2023-05-31T01:58:02.408Z,8.70
2023-05-31T02:00:37.025Z,8.60
2023-05-31T02:03:09.788Z,8.60
2023-05-31T02:05:58.849Z,8.60
2023-05-31T02:08:31.533Z,8.60
2023-05-31T02:11:04.623Z,8.50
2023-05-31T02:13:37.278Z,8.50
2023-05-31T02:16:10.082Z,8.60
2023-05-31T02:18:43.435Z,8.50
2023-05-31T02:21:16.310Z,8.40
2023-05-31T02:23:48.899Z,8.40
2023-05-31T02:26:23.098Z,8.50
2023-05-31T02:28:55.674Z,8.50
2023-05-31T02:31:28.839Z,8.50
2023-05-31T02:34:01.483Z,8.50
2023-05-31T02:36:34.314Z,8.40
2023-05-31T02:39:06.976Z,8.40
2023-05-31T02:41:39.796Z,8.40
2023-05-31T02:44:13.220Z,8.40
2023-05-31T02:46:46.107Z,8.40
2023-05-31T02:49:18.748Z,8.50
2023-05-31T02:51:51.643Z,8.50
2023-05-31T02:54:24.182Z,8.50
2023-05-31T02:56:57.180Z,8.50
2023-05-31T02:59:29.706Z,8.50
2023-05-31T03:02:02.732Z,8.50
2023-05-31T03:04:36.438Z,8.50
2023-05-31T03:07:09.514Z,8.50
2023-05-31T03:09:42.077Z,8.60
2023-05-31T03:12:14.937Z,8.70
2023-05-31T03:14:47.586Z,8.80
2023-05-31T03:17:21.471Z,8.90
2023-05-31T03:19:54.092Z,8.90
2023-05-31T03:22:27.163Z,9.00
2023-05-31T03:24:59.684Z,9.10
2023-05-31T03:27:32.565Z,9.20
2023-05-31T03:30:07.443Z,9.20
2023-05-31T03:32:40.418Z,9.20
2023-05-31T03:35:13.026Z,9.30
2023-05-31T03:37:45.898Z,9.30
2023-05-31T03:40:18.850Z,9.30
2023-05-31T03:42:51.921Z,9.40
2023-05-31T03:45:24.412Z,9.50
2023-05-31T03:47:57.271Z,9.60
2023-05-31T03:50:29.902Z,9.60
2023-05-31T03:53:02.951Z,9.60
2023-05-31T03:55:35.717Z,9.70
2023-05-31T03:58:08.659Z,9.70
2023-05-31T04:00:42.534Z,9.70
2023-05-31T04:03:15.475Z,9.70
2023-05-31T04:05:48.126Z,9.80
2023-05-31T04:08:20.950Z,9.90
2023-05-31T04:10:53.552Z,9.90
2023-05-31T04:13:27.110Z,10.00
2023-05-31T04:16:00.186Z,10.10
2023-05-31T04:18:33.113Z,10.20
2023-05-31T04:21:06.100Z,10.20
2023-05-31T04:23:39.002Z,10.20
2023-05-31T04:26:18.781Z,10.30
2023-05-31T04:28:55.824Z,10.30
2023-05-31T04:31:42.623Z,10.30
2023-05-31T04:34:22.669Z,10.30
2023-05-31T04:36:55.462Z,10.40
2023-05-31T04:39:28.567Z,10.40
2023-05-31T04:42:01.218Z,10.50
2023-05-31T04:44:34.048Z,10.50
2023-05-31T04:47:06.977Z,10.50
2023-05-31T04:49:53.699Z,10.50
2023-05-31T04:52:30.424Z,10.50
2023-05-31T04:55:03.547Z,10.60
2023-05-31T04:57:36.337Z,10.70
2023-05-31T05:00:10.881Z,10.70
2023-05-31T05:02:44.589Z,10.80
2023-05-31T05:05:18.526Z,11.00
2023-05-31T05:07:51.048Z,11.00
2023-05-31T05:10:23.917Z,11.10
2023-05-31T05:12:56.443Z,11.20
2023-05-31T05:15:29.252Z,11.30
2023-05-31T05:18:01.819Z,11.40
2023-05-31T05:20:34.745Z,11.50
2023-05-31T05:23:08.554Z,11.60
2023-05-31T05:25:41.500Z,11.70
2023-05-31T05:28:14.056Z,11.70
2023-05-31T05:30:47.010Z,11.80
2023-05-31T05:33:19.651Z,11.90
2023-05-31T05:35:52.516Z,12.00
2023-05-31T05:38:25.029Z,12.10
2023-05-31T05:40:57.992Z,12.20
2023-05-31T05:43:31.447Z,12.30
2023-05-31T05:46:04.389Z,12.40
2023-05-31T05:48:36.913Z,12.60
2023-05-31T05:51:10.580Z,12.60
2023-05-31T05:53:43.204Z,12.70
2023-05-31T05:56:19.280Z,12.80
2023-05-31T05:58:51.884Z,12.90
2023-05-31T06:01:28.238Z,13.00
2023-05-31T06:04:01.313Z,13.10
2023-05-31T06:06:34.414Z,13.20
2023-05-31T06:09:07.375Z,13.40
2023-05-31T06:11:40.223Z,13.50
2023-05-31T06:14:12.764Z,13.60
2023-05-31T06:16:46.296Z,13.70
2023-05-31T06:19:18.893Z,13.80
2023-05-31T06:21:51.802Z,13.90
2023-05-31T06:24:24.636Z,14.00
2023-05-31T06:26:57.698Z,14.10
2023-05-31T06:29:30.264Z,14.20
2023-05-31T06:32:03.093Z,14.30
2023-05-31T06:34:35.980Z,14.40
2023-05-31T06:37:10.040Z,14.50
2023-05-31T06:39:42.574Z,14.60
2023-05-31T06:42:15.531Z,14.60
2023-05-31T06:44:56.287Z,14.60
2023-05-31T06:47:30.163Z,14.70
2023-05-31T06:50:03.613Z,14.80
2023-05-31T06:52:36.490Z,14.90
2023-05-31T06:55:09.663Z,15.00
2023-05-31T06:57:42.459Z,15.10
2023-05-31T07:00:15.471Z,15.10
2023-05-31T07:02:49.246Z,15.20
2023-05-31T07:05:21.870Z,15.20
2023-05-31T07:07:54.742Z,15.30
2023-05-31T07:10:28.642Z,15.30
2023-05-31T07:13:01.701Z,15.40
2023-05-31T07:15:37.470Z,15.40
2023-05-31T07:18:10.389Z,15.50
2023-05-31T07:20:42.997Z,15.60
2023-05-31T07:23:16.236Z,15.60
2023-05-31T07:25:48.801Z,15.70
2023-05-31T07:28:21.627Z,15.70
2023-05-31T07:30:54.182Z,15.90
2023-05-31T07:33:28.777Z,15.90
2023-05-31T07:36:02.053Z,16.00
2023-05-31T07:38:35.157Z,16.10
2023-05-31T07:41:07.810Z,16.20
2023-05-31T07:43:42.235Z,16.30
2023-05-31T07:46:15.000Z,16.40
2023-05-31T07:48:47.919Z,16.50
2023-05-31T07:51:20.871Z,16.60
2023-05-31T07:53:53.946Z,16.70
2023-05-31T07:56:26.665Z,16.60
2023-05-31T07:58:59.557Z,16.70
2023-05-31T08:01:32.124Z,16.70
2023-05-31T08:04:09.237Z,16.70
2023-05-31T08:06:43.134Z,16.70
2023-05-31T08:09:16.048Z,16.80
2023-05-31T08:11:48.564Z,16.90
2023-05-31T08:14:21.736Z,16.90
2023-05-31T08:16:54.514Z,17.00
2023-05-31T08:19:27.404Z,17.10
2023-05-31T08:21:59.927Z,17.10
2023-05-31T08:24:32.795Z,17.20
2023-05-31T08:27:06.664Z,17.30
2023-05-31T08:29:39.612Z,17.40
2023-05-31T08:32:12.282Z,17.50
2023-05-31T08:34:46.300Z,17.60
2023-05-31T08:37:21.300Z,17.70
2023-05-31T08:39:54.116Z,17.80
2023-05-31T08:42:33.578Z,18.00
2023-05-31T08:45:07.177Z,18.00
2023-05-31T08:48:03.415Z,18.20
2023-05-31T08:50:37.014Z,18.20
2023-05-31T08:53:10.256Z,18.30
2023-05-31T08:55:44.980Z,18.40
2023-05-31T08:58:18.997Z,18.40
2023-05-31T09:00:51.877Z,18.50
2023-05-31T09:03:27.354Z,18.50
2023-05-31T09:06:00.851Z,18.70
2023-05-31T09:08:35.205Z,18.70
2023-05-31T09:11:09.052Z,18.80
2023-05-31T09:13:42.041Z,18.90
2023-05-31T09:16:14.940Z,19.00
2023-05-31T09:18:47.479Z,19.00
2023-05-31T09:21:20.290Z,19.00
2023-05-31T09:23:57.667Z,19.10
2023-05-31T09:26:33.766Z,19.10
2023-05-31T09:29:07.916Z,19.20
2023-05-31T09:31:40.907Z,19.30
2023-05-31T09:34:25.125Z,19.40
2023-05-31T09:36:59.953Z,19.50
2023-05-31T09:39:32.785Z,19.60
2023-05-31T09:42:14.125Z,19.70
2023-05-31T09:44:50.196Z,19.70
2023-05-31T09:47:27.020Z,19.80
2023-05-31T09:50:02.322Z,19.80
2023-05-31T09:52:39.273Z,19.80
2023-05-31T09:55:14.046Z,19.80
2023-05-31T09:57:47.686Z,19.80
2023-05-31T10:00:22.026Z,19.90
2023-05-31T10:02:56.040Z,19.90
2023-05-31T10:05:28.782Z,20.00
2023-05-31T10:08:01.854Z,20.00
2023-05-31T10:10:34.457Z,20.10
2023-05-31T10:13:11.653Z,20.20
2023-05-31T10:15:47.812Z,20.30
2023-05-31T10:18:25.049Z,20.50
2023-05-31T10:21:21.650Z,20.50
2023-05-31T10:24:10.883Z,20.50
2023-05-31T10:27:08.572Z,20.60
2023-05-31T10:29:45.162Z,20.70
2023-05-31T10:32:23.797Z,20.90
2023-05-31T10:34:57.021Z,21.00
2023-05-31T10:37:30.147Z,21.20
2023-05-31T10:40:10.623Z,21.30
2023-05-31T10:43:01.805Z,21.30
2023-05-31T10:45:40.179Z,21.30
2023-05-31T10:48:39.159Z,21.30
2023-05-31T10:51:13.272Z,21.50
2023-05-31T10:53:50.183Z,21.60
2023-05-31T10:56:23.908Z,21.70
2023-05-31T10:58:56.957Z,21.80
2023-05-31T11:01:30.444Z,21.90
2023-05-31T11:04:03.299Z,22.00
2023-05-31T11:06:37.939Z,22.10
2023-05-31T11:09:13.743Z,22.30
2023-05-31T11:11:48.605Z,22.40
2023-05-31T11:14:30.906Z,22.40
2023-05-31T11:17:05.446Z,22.30
2023-05-31T11:19:38.676Z,22.00
2023-05-31T11:22:15.940Z,21.90
2023-05-31T11:24:51.473Z,21.90
2023-05-31T11:27:37.066Z,22.00
2023-05-31T11:30:11.140Z,22.10
2023-05-31T11:32:44.349Z,22.10
2023-05-31T11:35:17.647Z,22.10
2023-05-31T11:37:52.109Z,22.20
2023-05-31T11:40:24.825Z,22.30
2023-05-31T11:43:06.778Z,22.30
2023-05-31T11:45:46.845Z,22.30
2023-05-31T11:48:39.397Z,22.20
2023-05-31T11:51:12.019Z,22.10
2023-05-31T11:53:45.639Z,22.10
2023-05-31T11:56:18.726Z,22.10
2023-05-31T11:58:51.524Z,22.00
2023-05-31T12:01:24.069Z,22.00
2023-05-31T12:04:00.610Z,22.00
2023-05-31T12:06:36.866Z,22.10
2023-05-31T12:09:10.304Z,22.20
2023-05-31T12:11:42.917Z,22.30
2023-05-31T12:14:16.463Z,22.30
2023-05-31T12:16:52.066Z,22.30
2023-05-31T12:19:24.935Z,22.20
2023-05-31T12:21:58.160Z,22.30
2023-05-31T12:24:31.270Z,22.30
2023-05-31T12:27:04.108Z,22.40
2023-05-31T12:29:39.994Z,22.50
2023-05-31T12:32:12.546Z,22.40
2023-05-31T12:34:46.484Z,22.40
2023-05-31T12:37:19.486Z,22.50
2023-05-31T12:40:10.519Z,22.50
2023-05-31T12:42:43.793Z,22.60
2023-05-31T12:45:22.495Z,22.60
2023-05-31T12:48:01.548Z,22.60
2023-05-31T12:50:34.541Z,22.50
2023-05-31T12:53:10.049Z,22.60
2023-05-31T12:55:43.612Z,22.60
2023-05-31T12:58:16.784Z,22.60
2023-05-31T13:00:52.452Z,22.70
2023-05-31T13:03:25.212Z,22.70
2023-05-31T13:05:58.250Z,22.80
2023-05-31T13:08:30.870Z,22.80
2023-05-31T13:11:03.742Z,22.90
2023-05-31T13:13:36.375Z,23.00
2023-05-31T13:16:09.582Z,23.10
2023-05-31T13:18:49.473Z,23.10
2023-05-31T13:21:27.910Z,23.10
2023-05-31T13:24:14.546Z,23.10
2023-05-31T13:26:47.722Z,23.10
2023-05-31T13:29:22.426Z,23.10
2023-05-31T13:31:55.403Z,23.10
2023-05-31T13:34:28.071Z,23.20
2023-05-31T13:37:01.806Z,23.20
2023-05-31T13:39:35.033Z,23.30
2023-05-31T13:42:08.991Z,23.30
2023-05-31T13:44:41.518Z,23.30
2023-05-31T13:47:15.947Z,23.30
2023-05-31T13:49:49.567Z,23.30
2023-05-31T13:52:22.587Z,23.40
2023-05-31T13:54:55.293Z,23.40
2023-05-31T13:57:28.362Z,23.40
2023-05-31T14:00:01.006Z,23.30
2023-05-31T14:02:36.451Z,23.40
2023-05-31T14:05:09.367Z,23.50
2023-05-31T14:07:42.356Z,23.50
2023-05-31T14:10:15.092Z,23.70
2023-05-31T14:12:49.240Z,23.70
2023-05-31T14:15:22.010Z,23.70
2023-05-31T14:17:55.089Z,23.70
2023-05-31T14:20:27.972Z,23.70
2023-05-31T14:23:11.209Z,24.00
2023-05-31T14:25:43.847Z,24.60
2023-05-31T14:28:17.997Z,25.40
2023-05-31T14:30:50.667Z,26.20
2023-05-31T14:33:25.458Z,26.90
2023-05-31T14:36:02.173Z,27.80
2023-05-31T14:38:36.256Z,28.60
2023-05-31T14:41:09.101Z,29.20
2023-05-31T14:43:42.003Z,29.80
2023-05-31T14:46:18.232Z,30.10
2023-05-31T14:49:20.694Z,30.60
2023-05-31T14:51:58.489Z,30.90
2023-05-31T14:54:31.337Z,31.60
2023-05-31T14:57:04.745Z,32.60
2023-05-31T14:59:37.893Z,33.20
2023-05-31T15:02:10.599Z,33.90
2023-05-31T15:04:43.588Z,34.20
2023-05-31T15:07:16.273Z,34.60
2023-05-31T15:09:49.165Z,34.70
2023-05-31T15:12:24.333Z,35.10
2023-05-31T15:14:57.206Z,35.60
2023-05-31T15:17:30.027Z,35.70
2023-05-31T15:20:03.569Z,35.40
2023-05-31T15:22:38.534Z,35.00
2023-05-31T15:25:11.386Z,35.20
2023-05-31T15:27:44.440Z,35.90
2023-05-31T15:30:17.721Z,36.50
2023-05-31T15:32:50.875Z,36.90
2023-05-31T15:35:26.504Z,37.60
2023-05-31T15:37:59.141Z,37.90
2023-05-31T15:40:32.108Z,38.10
2023-05-31T15:43:04.786Z,37.90
2023-05-31T15:45:38.070Z,37.70
2023-05-31T15:48:10.902Z,37.60
2023-05-31T15:50:44.082Z,37.90
2023-05-31T15:53:16.780Z,38.10
2023-05-31T15:55:49.787Z,38.10
2023-05-31T15:58:22.682Z,38.20
2023-05-31T16:00:56.678Z,37.80
2023-05-31T16:03:30.175Z,38.00
2023-05-31T16:06:05.906Z,38.30
2023-05-31T16:08:39.851Z,38.30
2023-05-31T16:11:13.217Z,38.10
2023-05-31T16:13:45.797Z,37.80
2023-05-31T16:16:19.358Z,37.70
2023-05-31T16:18:52.182Z,37.80
2023-05-31T16:21:25.579Z,37.20
2023-05-31T16:23:58.299Z,37.00
2023-05-31T16:26:31.243Z,37.00
2023-05-31T16:29:03.849Z,37.10
2023-05-31T16:31:36.937Z,37.50
2023-05-31T16:34:09.717Z,37.50
2023-05-31T16:36:42.687Z,37.50
2023-05-31T16:39:16.090Z,37.20
2023-05-31T16:41:49.095Z,37.30
2023-05-31T16:44:21.631Z,37.30
2023-05-31T16:46:54.546Z,37.20
2023-05-31T16:49:27.186Z,37.40
2023-05-31T16:52:00.349Z,37.80
2023-05-31T16:54:33.042Z,38.10
2023-05-31T16:57:06.785Z,38.10
2023-05-31T16:59:39.886Z,38.20
2023-05-31T17:02:13.004Z,38.40
2023-05-31T17:04:48.284Z,38.70
2023-05-31T17:07:21.543Z,38.80
2023-05-31T17:09:54.489Z,39.10
2023-05-31T17:12:29.069Z,39.40
2023-05-31T17:15:01.844Z,39.10
2023-05-31T17:17:35.117Z,39.30
2023-05-31T17:20:08.286Z,38.90
2023-05-31T17:22:43.369Z,39.20
2023-05-31T17:25:16.361Z,39.40
2023-05-31T17:28:04.175Z,39.00
2023-05-31T17:30:37.736Z,38.80
2023-05-31T17:33:14.363Z,38.70
2023-05-31T17:35:50.264Z,38.70
2023-05-31T17:38:23.198Z,38.50
2023-05-31T17:40:59.460Z,38.30
2023-05-31T17:43:32.233Z,38.00
2023-05-31T17:46:05.241Z,37.70
2023-05-31T17:48:43.423Z,37.30
2023-05-31T17:51:17.204Z,36.80
2023-05-31T17:53:50.393Z,36.60
2023-05-31T17:56:40.885Z,36.30
2023-05-31T17:59:22.562Z,36.40
2023-05-31T18:02:01.945Z,36.20
2023-05-31T18:04:43.445Z,34.70
2023-05-31T18:07:17.940Z,32.50
2023-05-31T18:09:55.770Z,30.70
2023-05-31T18:12:28.846Z,29.30
2023-05-31T18:15:01.792Z,28.10
2023-05-31T18:17:35.320Z,27.10
2023-05-31T18:20:08.952Z,26.30
2023-05-31T18:22:42.353Z,25.60
2023-05-31T18:25:15.245Z,25.00
2023-05-31T18:27:48.772Z,24.50
2023-05-31T18:30:21.981Z,24.10
2023-05-31T18:32:55.122Z,23.70
2023-05-31T18:35:30.563Z,23.40
2023-05-31T18:38:04.044Z,23.10
2023-05-31T18:40:36.911Z,22.70
2023-05-31T18:43:11.235Z,22.50
2023-05-31T18:45:44.049Z,22.10
2023-05-31T18:48:17.294Z,21.90
2023-05-31T18:50:52.587Z,21.60
2023-05-31T18:53:25.987Z,21.30
2023-05-31T18:55:59.061Z,21.10
2023-05-31T18:58:32.684Z,20.90
2023-05-31T19:01:05.629Z,20.70
2023-05-31T19:03:39.481Z,20.50
2023-05-31T19:06:12.396Z,20.20
2023-05-31T19:08:45.562Z,19.90
2023-05-31T19:11:23.705Z,19.70
2023-05-31T19:13:56.870Z,19.60
2023-05-31T19:16:29.784Z,19.50
2023-05-31T19:19:04.756Z,19.40
2023-05-31T19:21:37.521Z,19.30
2023-05-31T19:24:10.768Z,19.20
2023-05-31T19:26:43.302Z,19.10
2023-05-31T19:29:17.208Z,19.00
2023-05-31T19:31:49.884Z,18.90
2023-05-31T19:34:22.698Z,18.80
2023-05-31T19:36:55.732Z,18.60
2023-05-31T19:39:28.655Z,18.50
2023-05-31T19:42:01.186Z,18.40
2023-05-31T19:44:34.336Z,18.30
2023-05-31T19:47:07.022Z,18.20
2023-05-31T19:49:39.921Z,18.10
2023-05-31T19:52:14.774Z,17.90
2023-05-31T19:54:47.802Z,17.90
2023-05-31T19:57:20.396Z,17.70
2023-05-31T19:59:54.671Z,17.60
2023-05-31T20:02:27.303Z,17.50
2023-05-31T20:05:00.284Z,17.40
2023-05-31T20:07:32.932Z,17.30
2023-05-31T20:10:06.474Z,17.40
2023-05-31T20:12:39.025Z,17.30
2023-05-31T20:15:11.990Z,17.10
2023-05-31T20:17:44.616Z,17.10
2023-05-31T20:20:17.548Z,17.00
2023-05-31T20:22:50.155Z,17.00
2023-05-31T20:25:23.082Z,16.90
2023-05-31T20:27:55.761Z,16.80
2023-05-31T20:30:28.664Z,16.80
2023-05-31T20:33:01.428Z,16.70
2023-05-31T20:35:34.396Z,16.60
2023-05-31T20:38:07.178Z,16.60
2023-05-31T20:40:42.389Z,16.50
2023-05-31T20:43:14.973Z,16.50
2023-05-31T20:45:47.960Z,16.50
2023-05-31T20:48:20.579Z,16.50
2023-05-31T20:50:53.434Z,16.50
2023-05-31T20:53:26.707Z,16.40
2023-05-31T20:56:00.640Z,16.30
2023-05-31T20:58:33.753Z,16.20
2023-05-31T21:01:07.117Z,16.10
2023-05-31T21:03:39.807Z,16.10
2023-05-31T21:06:12.924Z,16.10
2023-05-31T21:08:45.549Z,16.00
2023-05-31T21:11:18.445Z,16.00
2023-05-31T21:13:51.026Z,15.90
2023-05-31T21:16:24.133Z,15.90
2023-05-31T21:18:56.803Z,15.90
2023-05-31T21:21:32.221Z,15.90
2023-05-31T21:24:04.866Z,15.80
2023-05-31T21:26:39.506Z,15.70
2023-05-31T21:29:15.931Z,15.70
2023-05-31T21:31:52.755Z,15.60
2023-05-31T21:34:25.498Z,15.60
2023-05-31T21:36:58.321Z,15.60
2023-05-31T21:39:33.117Z,15.50
2023-05-31T21:42:09.346Z,15.60
2023-05-31T21:44:41.878Z,15.60
2023-05-31T21:47:14.870Z,15.60
2023-05-31T21:49:47.513Z,15.60
2023-05-31T21:52:20.413Z,15.60
2023-05-31T21:54:52.975Z,15.50
2023-05-31T21:57:25.998Z,15.50
2023-05-31T21:59:58.576Z,15.50
2023-05-31T22:02:31.461Z,15.50
2023-05-31T22:05:04.215Z,15.50
2023-05-31T22:07:37.903Z,15.40
2023-05-31T22:10:11.005Z,15.40
2023-05-31T22:12:43.948Z,15.30
2023-05-31T22:15:16.515Z,15.30
2023-05-31T22:17:51.997Z,15.30
2023-05-31T22:20:27.080Z,15.20
2023-05-31T22:22:59.919Z,15.10
2023-05-31T22:25:32.721Z,15.00
2023-05-31T22:28:05.604Z,14.90
2023-05-31T22:30:38.472Z,14.90
2023-05-31T22:33:12.026Z,14.80
2023-05-31T22:35:44.921Z,14.80
2023-05-31T22:38:17.864Z,14.80
2023-05-31T22:40:51.077Z,14.70
2023-05-31T22:43:23.952Z,14.70
2023-05-31T22:45:56.933Z,14.60
2023-05-31T22:48:30.253Z,14.60
2023-05-31T22:51:03.533Z,14.50
2023-05-31T22:53:36.461Z,14.50
2023-05-31T22:56:09.663Z,14.40
2023-05-31T22:58:42.175Z,14.40
2023-05-31T23:01:15.205Z,14.40
2023-05-31T23:03:48.079Z,14.40
2023-05-31T23:06:22.617Z,14.30
2023-05-31T23:08:55.179Z,14.20
2023-05-31T23:11:30.574Z,14.20
2023-05-31T23:14:04.008Z,14.20
2023-05-31T23:16:37.234Z,14.20
2023-05-31T23:19:10.396Z,14.10
2023-05-31T23:21:46.379Z,14.10
2023-05-31T23:24:19.099Z,14.10
2023-05-31T23:26:51.946Z,14.10
2023-05-31T23:29:24.522Z,14.10
2023-05-31T23:31:57.632Z,14.00
2023-05-31T23:34:30.186Z,13.90
2023-05-31T23:37:02.984Z,13.80
2023-05-31T23:39:35.519Z,13.90
2023-05-31T23:42:08.659Z,13.80
2023-05-31T23:44:41.236Z,13.80
2023-05-31T23:47:14.600Z,13.70
2023-05-31T23:49:47.146Z,13.50
2023-05-31T23:52:20.434Z,13.50
2023-05-31T23:54:52.964Z,13.50
2023-05-31T23:57:25.884Z,13.50
2023-05-31T23:59:58.723Z,13.50
